createdAt,value
2019-03-02T00:00:54.471Z,4.20
2019-03-02T00:01:54.469Z,4.90
2019-03-02T00:02:56.794Z,4.70
2019-03-02T00:03:54.492Z,4.80
2019-03-02T00:04:54.507Z,4.60
2019-03-02T00:05:56.955Z,4.60
2019-03-02T00:06:54.533Z,5.30
2019-03-02T00:07:54.545Z,4.80
2019-03-02T00:08:56.755Z,4.60
2019-03-02T00:09:54.570Z,5.20
2019-03-02T00:10:54.587Z,5.50
2019-03-02T00:11:56.602Z,4.70
2019-03-02T00:12:54.611Z,5.30
2019-03-02T00:13:54.625Z,4.70
2019-03-02T00:14:55.064Z,5.20
2019-03-02T00:15:54.649Z,4.70
2019-03-02T00:16:54.661Z,5.10
2019-03-02T00:17:55.147Z,5.10
2019-03-02T00:18:54.688Z,5.20
2019-03-02T00:19:54.704Z,5.70
2019-03-02T00:20:55.623Z,4.90
2019-03-02T00:21:54.726Z,4.90
2019-03-02T00:22:54.742Z,5.20
2019-03-02T00:23:55.288Z,5.20
2019-03-02T00:24:58.004Z,4.70
2019-03-02T00:25:54.777Z,5.10
2019-03-02T00:26:54.790Z,5.10
2019-03-02T00:27:58.200Z,4.80
2019-03-02T00:28:54.819Z,4.70
2019-03-02T00:29:54.829Z,5.10
2019-03-02T00:30:57.637Z,5.20
2019-03-02T00:31:54.853Z,4.80
2019-03-02T00:32:54.867Z,5.40
2019-03-02T00:33:56.639Z,5.10
2019-03-02T00:34:54.896Z,5.30
2019-03-02T00:35:54.905Z,4.60
2019-03-02T00:36:58.320Z,5.80
2019-03-02T00:37:54.933Z,5.00
2019-03-02T00:38:54.944Z,4.80
2019-03-02T00:39:55.665Z,5.10
2019-03-02T00:40:54.970Z,5.10
2019-03-02T00:41:54.984Z,5.70
2019-03-02T00:42:54.995Z,5.30
2019-03-02T00:43:55.010Z,5.10
2019-03-02T00:44:55.021Z,5.20
2019-03-02T00:45:57.217Z,5.30
2019-03-02T00:46:56.383Z,5.50
2019-03-02T00:47:55.064Z,5.10
2019-03-02T00:48:55.074Z,5.00
2019-03-02T00:49:57.257Z,5.20
2019-03-02T00:50:55.102Z,5.70
2019-03-02T00:51:55.112Z,5.20
2019-03-02T00:52:55.656Z,5.20
2019-03-02T00:53:55.138Z,5.50
2019-03-02T00:54:58.448Z,5.90
2019-03-02T00:55:55.164Z,5.60
2019-03-02T00:56:55.175Z,5.50
2019-03-02T00:57:55.190Z,5.60
2019-03-02T00:58:55.205Z,5.50
2019-03-02T00:59:55.215Z,5.80
2019-03-02T01:00:55.227Z,5.90
2019-03-02T01:01:55.242Z,5.70
2019-03-02T01:02:55.255Z,5.90
2019-03-02T01:03:55.267Z,5.50
2019-03-02T01:04:57.774Z,5.70
2019-03-02T01:05:55.297Z,5.90
2019-03-02T01:06:55.305Z,5.30
2019-03-02T01:07:55.940Z,5.20
2019-03-02T01:08:55.333Z,5.50
2019-03-02T01:09:55.345Z,5.60
2019-03-02T01:10:58.203Z,5.80
2019-03-02T01:11:55.371Z,5.80
2019-03-02T01:12:55.384Z,5.90
2019-03-02T01:13:56.852Z,6.00
2019-03-02T01:14:55.410Z,5.60
2019-03-02T01:15:55.435Z,5.70
2019-03-02T01:16:55.919Z,6.50
2019-03-02T01:17:55.525Z,6.00
2019-03-02T01:18:55.516Z,6.10
2019-03-02T01:19:55.525Z,6.50
2019-03-02T01:20:55.526Z,5.60
2019-03-02T01:21:55.568Z,5.70
2019-03-02T01:22:55.566Z,5.90
2019-03-02T01:23:55.565Z,6.40
2019-03-02T01:24:55.564Z,5.70
2019-03-02T01:25:55.570Z,5.70
2019-03-02T01:26:55.783Z,5.50
2019-03-02T01:27:55.577Z,5.60
2019-03-02T01:28:55.590Z,5.50
2019-03-02T01:29:55.605Z,5.90
2019-03-02T01:30:55.619Z,5.50
2019-03-02T01:31:55.637Z,5.40
2019-03-02T01:32:55.644Z,5.40
2019-03-02T01:33:55.660Z,5.50
2019-03-02T01:34:55.669Z,6.20
2019-03-02T01:35:56.936Z,6.10
2019-03-02T01:36:55.696Z,6.10
2019-03-02T01:37:55.710Z,5.80
2019-03-02T01:38:55.720Z,6.00
2019-03-02T01:39:55.734Z,5.80
2019-03-02T01:40:55.748Z,6.50
2019-03-02T01:41:55.779Z,5.70
2019-03-02T01:42:55.773Z,6.10
2019-03-02T01:43:55.784Z,5.80
2019-03-02T01:44:55.800Z,6.20
2019-03-02T01:45:55.810Z,5.70
2019-03-02T01:46:55.826Z,5.90
2019-03-02T01:47:55.835Z,5.90
2019-03-02T01:48:58.675Z,6.00
2019-03-02T01:49:55.864Z,6.00
2019-03-02T01:50:55.877Z,6.20
2019-03-02T01:51:58.166Z,6.00
2019-03-02T01:52:55.900Z,6.10
2019-03-02T01:53:55.914Z,5.80
2019-03-02T01:54:56.651Z,6.40
2019-03-02T01:55:55.941Z,6.20
2019-03-02T01:56:55.952Z,6.30
2019-03-02T01:57:55.965Z,6.20
2019-03-02T01:58:55.978Z,5.80
2019-03-02T01:59:55.995Z,6.30
2019-03-02T02:00:56.003Z,5.90
2019-03-02T02:01:56.600Z,6.40
2019-03-02T02:02:56.030Z,7.00
2019-03-02T02:03:56.040Z,6.10
2019-03-02T02:04:57.448Z,6.40
2019-03-02T02:05:56.067Z,6.20
2019-03-02T02:06:56.080Z,6.30
2019-03-02T02:07:56.102Z,6.40
2019-03-02T02:08:56.105Z,6.50
2019-03-02T02:09:56.116Z,6.10
2019-03-02T02:10:56.130Z,6.40
2019-03-02T02:11:56.143Z,6.10
2019-03-02T02:12:56.156Z,6.20
2019-03-02T02:13:56.181Z,6.30
2019-03-02T02:14:56.181Z,6.30
2019-03-02T02:15:56.196Z,6.00
2019-03-02T02:16:56.205Z,6.60
2019-03-02T02:17:56.221Z,6.20
2019-03-02T02:18:59.297Z,6.30
2019-03-02T02:19:56.244Z,6.80
2019-03-02T02:20:56.260Z,6.90
2019-03-02T02:21:58.776Z,6.50
2019-03-02T02:22:56.283Z,6.70
2019-03-02T02:23:56.295Z,6.40
2019-03-02T02:24:56.809Z,6.90
2019-03-02T02:25:56.321Z,6.50
2019-03-02T02:26:56.342Z,6.50
2019-03-02T02:27:57.829Z,6.40
2019-03-02T02:28:56.361Z,7.10
2019-03-02T02:29:56.370Z,6.80
2019-03-02T02:30:56.387Z,7.40
2019-03-02T02:31:56.396Z,6.70
2019-03-02T02:33:02.877Z,6.80
2019-03-02T02:33:56.424Z,7.10
2019-03-02T02:35:00.507Z,6.90
2019-03-02T02:35:56.452Z,6.80
2019-03-02T02:36:58.323Z,7.00
2019-03-02T02:37:56.474Z,7.30
2019-03-02T02:38:56.486Z,6.90
2019-03-02T02:39:56.499Z,6.40
2019-03-02T02:40:56.509Z,6.80
2019-03-02T02:42:00.147Z,7.00
2019-03-02T02:42:56.539Z,6.70
2019-03-02T02:43:58.964Z,6.90
2019-03-02T02:44:56.564Z,6.80
2019-03-02T02:45:56.573Z,7.30
2019-03-02T02:46:56.591Z,6.90
2019-03-02T02:47:56.601Z,6.50
2019-03-02T02:48:56.613Z,7.20
2019-03-02T02:49:56.631Z,6.40
2019-03-02T02:50:56.634Z,6.90
2019-03-02T02:51:56.653Z,6.50
2019-03-02T02:52:56.664Z,6.50
2019-03-02T02:53:56.675Z,6.30
2019-03-02T02:54:57.453Z,7.00
2019-03-02T02:55:56.699Z,7.20
2019-03-02T02:56:58.764Z,6.60
2019-03-02T02:57:56.726Z,7.10
2019-03-02T02:59:00.327Z,7.00
2019-03-02T02:59:56.752Z,6.80
2019-03-02T03:00:56.822Z,6.50
2019-03-02T03:01:56.777Z,6.60
2019-03-02T03:02:56.792Z,6.90
2019-03-02T03:03:59.505Z,6.60
2019-03-02T03:04:56.817Z,6.90
2019-03-02T03:05:56.835Z,7.30
2019-03-02T03:06:56.839Z,6.90
2019-03-02T03:07:56.852Z,7.00
2019-03-02T03:08:56.865Z,6.80
2019-03-02T03:09:56.877Z,6.40
2019-03-02T03:10:56.891Z,7.30
2019-03-02T03:11:56.921Z,6.90
2019-03-02T03:13:01.717Z,6.80
2019-03-02T03:13:56.931Z,7.00
2019-03-02T03:14:58.339Z,7.00
2019-03-02T03:15:56.954Z,7.00
2019-03-02T03:16:56.966Z,6.70
2019-03-02T03:17:56.981Z,7.00
2019-03-02T03:18:56.994Z,6.50
2019-03-02T03:19:57.004Z,7.20
2019-03-02T03:20:57.019Z,7.40
2019-03-02T03:21:57.033Z,6.50
2019-03-02T03:22:57.068Z,7.30
2019-03-02T03:24:03.197Z,6.60
2019-03-02T03:24:57.071Z,8.30
2019-03-02T03:25:58.552Z,6.80
2019-03-02T03:26:57.094Z,7.40
2019-03-02T03:27:57.113Z,8.00
2019-03-02T03:28:57.120Z,7.20
2019-03-02T03:29:57.138Z,7.80
2019-03-02T03:30:57.162Z,6.80
2019-03-02T03:32:07.595Z,7.20
2019-03-02T03:32:59.683Z,7.40
2019-03-02T03:33:57.245Z,7.20
2019-03-02T03:34:57.209Z,7.00
2019-03-02T03:35:57.740Z,7.30
2019-03-02T03:36:57.223Z,7.00
2019-03-02T03:37:57.238Z,7.10
2019-03-02T03:38:57.336Z,6.90
2019-03-02T03:39:57.335Z,7.00
2019-03-02T03:41:00.177Z,7.70
2019-03-02T03:41:57.335Z,6.80
2019-03-02T03:43:02.192Z,6.50
2019-03-02T03:43:57.336Z,7.20
2019-03-02T03:44:59.866Z,7.00
2019-03-02T03:45:57.410Z,6.70
2019-03-02T03:47:00.638Z,7.10
2019-03-02T03:47:57.413Z,7.70
2019-03-02T03:48:57.982Z,7.90
2019-03-02T03:49:57.391Z,6.90
2019-03-02T03:50:57.408Z,7.30
2019-03-02T03:51:57.421Z,7.30
2019-03-02T03:52:57.424Z,6.90
2019-03-02T03:54:01.483Z,7.30
2019-03-02T03:54:57.460Z,7.60
2019-03-02T03:56:03.308Z,7.20
2019-03-02T03:56:57.478Z,7.00
2019-03-02T03:58:00.459Z,7.40
2019-03-02T03:58:57.505Z,7.20
2019-03-02T03:59:58.793Z,6.90
2019-03-02T04:00:57.529Z,7.10
2019-03-02T04:01:58.419Z,6.90
2019-03-02T04:02:57.561Z,7.50
2019-03-02T04:03:57.569Z,7.10
2019-03-02T04:04:57.579Z,7.10
2019-03-02T04:05:57.595Z,6.80
2019-03-02T04:07:01.418Z,7.50
2019-03-02T04:07:57.624Z,7.20
2019-03-02T04:08:57.645Z,7.30
2019-03-02T04:09:57.646Z,7.20
2019-03-02T04:11:00.321Z,7.00
2019-03-02T04:11:57.670Z,7.60
2019-03-02T04:13:04.248Z,7.60
2019-03-02T04:13:57.695Z,7.50
2019-03-02T04:15:01.314Z,8.10
2019-03-02T04:15:57.720Z,7.60
2019-03-02T04:17:00.523Z,7.30
2019-03-02T04:17:57.745Z,7.30
2019-03-02T04:18:58.241Z,6.70
2019-03-02T04:19:57.770Z,7.10
2019-03-02T04:20:57.782Z,7.80
2019-03-02T04:22:02.115Z,8.50
2019-03-02T04:22:57.809Z,7.80
2019-03-02T04:24:01.297Z,7.50
2019-03-02T04:24:57.834Z,7.80
2019-03-02T04:25:58.293Z,7.90
2019-03-02T04:26:57.859Z,7.70
2019-03-02T04:27:57.874Z,8.00
2019-03-02T04:28:57.883Z,7.80
2019-03-02T04:29:57.897Z,7.50
2019-03-02T04:30:57.911Z,8.40
2019-03-02T04:31:57.922Z,8.50
2019-03-02T04:33:01.726Z,7.50
2019-03-02T04:33:57.944Z,8.70
2019-03-02T04:34:58.811Z,8.00
2019-03-02T04:35:57.969Z,8.10
2019-03-02T04:36:57.985Z,8.60
2019-03-02T04:38:00.740Z,7.80
2019-03-02T04:38:58.010Z,7.90
2019-03-02T04:39:58.025Z,7.80
2019-03-02T04:41:00.696Z,8.00
2019-03-02T04:41:58.049Z,8.20
2019-03-02T04:42:58.062Z,8.20
2019-03-02T04:43:58.072Z,8.00
2019-03-02T04:44:58.085Z,7.40
2019-03-02T04:45:58.096Z,8.70
2019-03-02T04:46:58.110Z,7.40
2019-03-02T04:47:59.963Z,7.80
2019-03-02T04:48:58.136Z,8.70
2019-03-02T04:49:58.153Z,7.90
2019-03-02T04:50:59.583Z,7.30
2019-03-02T04:51:58.172Z,7.60
2019-03-02T04:52:58.185Z,8.30
2019-03-02T04:54:01.593Z,8.20
2019-03-02T04:54:58.212Z,8.10
2019-03-02T04:55:58.225Z,8.40
2019-03-02T04:56:58.941Z,7.70
2019-03-02T04:57:58.251Z,8.40
2019-03-02T04:58:58.261Z,8.50
2019-03-02T04:59:58.274Z,8.40
2019-03-02T05:00:58.292Z,7.90
2019-03-02T05:01:58.308Z,8.50
2019-03-02T05:02:58.314Z,8.30
2019-03-02T05:03:58.325Z,7.90
2019-03-02T05:04:58.339Z,8.50
2019-03-02T05:05:58.349Z,9.00
2019-03-02T05:06:58.364Z,8.00
2019-03-02T05:07:58.375Z,8.60
2019-03-02T05:08:58.389Z,8.30
2019-03-02T05:09:58.401Z,8.40
2019-03-02T05:11:00.614Z,8.20
2019-03-02T05:11:58.425Z,8.70
2019-03-02T05:12:58.438Z,7.80
2019-03-02T05:14:00.714Z,8.20
2019-03-02T05:14:58.474Z,7.70
2019-03-02T05:15:58.475Z,7.60
2019-03-02T05:16:58.491Z,8.60
2019-03-02T05:17:58.503Z,8.20
2019-03-02T05:18:58.517Z,8.20
2019-03-02T05:20:00.942Z,8.30
2019-03-02T05:20:58.538Z,8.50
2019-03-02T05:21:58.552Z,9.40
2019-03-02T05:22:58.871Z,8.30
2019-03-02T05:23:58.578Z,8.40
2019-03-02T05:24:58.591Z,8.40
2019-03-02T05:25:58.602Z,8.30
2019-03-02T05:26:58.614Z,9.00
2019-03-02T05:27:58.626Z,8.70
2019-03-02T05:28:58.638Z,8.60
2019-03-02T05:29:58.652Z,9.00
2019-03-02T05:30:58.664Z,8.80
2019-03-02T05:31:58.676Z,9.00
2019-03-02T05:32:58.690Z,8.40
2019-03-02T05:34:00.755Z,9.00
2019-03-02T05:34:58.716Z,8.60
2019-03-02T05:35:58.727Z,8.00
2019-03-02T05:36:59.656Z,9.10
2019-03-02T05:37:58.757Z,9.20
2019-03-02T05:38:58.765Z,8.60
2019-03-02T05:39:58.777Z,9.70
2019-03-02T05:40:59.426Z,8.40
2019-03-02T05:41:58.818Z,9.00
2019-03-02T05:42:58.818Z,9.40
2019-03-02T05:43:58.828Z,9.20
2019-03-02T05:44:58.842Z,9.60
2019-03-02T05:45:58.856Z,9.00
2019-03-02T05:47:01.523Z,10.30
2019-03-02T05:48:00.944Z,8.20
2019-03-02T05:48:58.893Z,9.30
2019-03-02T05:49:58.905Z,8.70
2019-03-02T05:50:58.918Z,8.90
2019-03-02T05:51:58.930Z,8.80
2019-03-02T05:52:58.945Z,8.70
2019-03-02T05:53:58.956Z,9.40
2019-03-02T05:54:58.969Z,8.70
2019-03-02T05:55:58.981Z,8.90
2019-03-02T05:57:00.753Z,8.70
2019-03-02T05:57:59.006Z,8.80
2019-03-02T05:58:59.020Z,9.40
2019-03-02T06:00:01.619Z,9.10
2019-03-02T06:00:59.046Z,9.30
2019-03-02T06:01:59.057Z,9.50
2019-03-02T06:02:59.085Z,9.70
2019-03-02T06:03:59.160Z,10.50
2019-03-02T06:04:59.158Z,9.30
2019-03-02T06:05:59.157Z,9.20
2019-03-02T06:06:59.154Z,9.20
2019-03-02T06:08:00.480Z,9.60
2019-03-02T06:08:59.213Z,9.50
2019-03-02T06:09:59.209Z,9.00
2019-03-02T06:11:01.949Z,9.30
2019-03-02T06:11:59.226Z,10.00
2019-03-02T06:12:59.213Z,9.50
2019-03-02T06:13:59.215Z,8.80
2019-03-02T06:14:59.225Z,9.10
2019-03-02T06:15:59.234Z,9.40
2019-03-02T06:16:59.246Z,9.40
2019-03-02T06:17:59.261Z,9.30
2019-03-02T06:18:59.274Z,9.40
2019-03-02T06:20:00.162Z,9.10
2019-03-02T06:20:59.298Z,8.70
2019-03-02T06:21:59.311Z,9.20
2019-03-02T06:22:59.333Z,9.90
2019-03-02T06:24:01.650Z,9.00
2019-03-02T06:24:59.354Z,9.40
2019-03-02T06:26:00.040Z,9.50
2019-03-02T06:26:59.375Z,9.40
2019-03-02T06:27:59.390Z,9.00
2019-03-02T06:28:59.400Z,9.50
2019-03-02T06:29:59.413Z,9.30
2019-03-02T06:30:59.429Z,9.00
2019-03-02T06:31:59.440Z,9.70
2019-03-02T06:32:59.450Z,10.60
2019-03-02T06:33:59.467Z,9.10
2019-03-02T06:34:59.483Z,8.90
2019-03-02T06:35:59.492Z,9.40
2019-03-02T06:36:59.502Z,9.80
2019-03-02T06:37:59.516Z,9.50
2019-03-02T06:38:59.530Z,9.40
2019-03-02T06:39:59.543Z,9.70
2019-03-02T06:40:59.555Z,9.80
2019-03-02T06:41:59.569Z,10.10
2019-03-02T06:42:59.582Z,10.60
2019-03-02T06:43:59.594Z,9.90
2019-03-02T06:44:59.605Z,10.30
2019-03-02T06:45:59.620Z,9.10
2019-03-02T06:46:59.634Z,9.10
2019-03-02T06:47:59.646Z,9.30
2019-03-02T06:48:59.659Z,9.30
2019-03-02T06:50:00.140Z,9.40
2019-03-02T06:50:59.685Z,10.00
2019-03-02T06:51:59.706Z,9.40
2019-03-02T06:53:01.493Z,9.60
2019-03-02T06:53:59.725Z,8.90
2019-03-02T06:54:59.738Z,9.50
2019-03-02T06:56:00.719Z,9.30
2019-03-02T06:56:59.763Z,9.80
2019-03-02T06:57:59.775Z,9.20
2019-03-02T06:59:00.644Z,10.10
2019-03-02T06:59:59.802Z,10.20
2019-03-02T07:00:59.815Z,9.60
2019-03-02T07:02:00.829Z,10.20
2019-03-02T07:02:59.842Z,9.30
2019-03-02T07:03:59.855Z,10.40
2019-03-02T07:04:59.891Z,10.60
2019-03-02T07:05:59.881Z,10.80
2019-03-02T07:06:59.895Z,9.30
2019-03-02T07:07:59.908Z,10.80
2019-03-02T07:08:59.920Z,10.20
2019-03-02T07:09:59.933Z,10.20
2019-03-02T07:10:59.945Z,10.30
2019-03-02T07:11:59.958Z,9.40
2019-03-02T07:12:59.976Z,10.20
2019-03-02T07:13:59.986Z,9.90
2019-03-02T07:15:00.000Z,10.10
2019-03-02T07:16:00.013Z,9.90
2019-03-02T07:17:00.027Z,9.80
2019-03-02T07:18:01.990Z,10.20
2019-03-02T07:19:00.052Z,9.90
2019-03-02T07:20:00.103Z,10.60
2019-03-02T07:21:02.962Z,9.60
2019-03-02T07:22:00.091Z,10.40
2019-03-02T07:23:00.110Z,10.00
2019-03-02T07:24:00.120Z,10.40
2019-03-02T07:25:01.365Z,9.80
2019-03-02T07:26:00.146Z,10.10
2019-03-02T07:27:00.160Z,9.70
2019-03-02T07:28:01.843Z,11.20
2019-03-02T07:29:00.185Z,10.70
2019-03-02T07:30:00.265Z,10.70
2019-03-02T07:31:00.212Z,10.40
2019-03-02T07:32:00.225Z,11.00
2019-03-02T07:33:00.239Z,10.20
2019-03-02T07:34:00.252Z,10.30
2019-03-02T07:35:00.444Z,10.10
2019-03-02T07:36:00.281Z,10.60
2019-03-02T07:37:00.293Z,10.70
2019-03-02T07:38:00.309Z,11.00
2019-03-02T07:39:00.329Z,10.60
2019-03-02T07:40:00.355Z,10.90
2019-03-02T07:41:00.350Z,11.00
2019-03-02T07:42:00.362Z,11.00
2019-03-02T07:43:00.380Z,11.50
2019-03-02T07:44:00.389Z,11.20
2019-03-02T07:45:00.407Z,10.20
2019-03-02T07:46:00.416Z,10.90
2019-03-02T07:47:00.428Z,10.60
2019-03-02T07:48:01.521Z,10.90
2019-03-02T07:49:00.459Z,10.50
2019-03-02T07:50:00.472Z,10.70
2019-03-02T07:51:04.729Z,10.60
2019-03-02T07:52:00.499Z,10.40
2019-03-02T07:53:00.511Z,10.60
2019-03-02T07:54:02.169Z,10.50
2019-03-02T07:55:00.548Z,10.40
2019-03-02T07:56:00.553Z,9.50
2019-03-02T07:57:00.566Z,10.40
2019-03-02T07:58:00.585Z,10.40
2019-03-02T07:59:00.595Z,10.40
2019-03-02T08:00:02.086Z,9.60
2019-03-02T08:01:00.622Z,10.50
2019-03-02T08:02:00.636Z,10.30
2019-03-02T08:03:00.650Z,10.90
2019-03-02T08:04:01.045Z,9.60
2019-03-02T08:05:00.679Z,9.80
2019-03-02T08:06:01.293Z,10.90
2019-03-02T08:07:01.479Z,10.20
2019-03-02T08:08:00.721Z,10.50
2019-03-02T08:09:00.735Z,9.90
2019-03-02T08:10:02.154Z,10.00
2019-03-02T08:11:00.764Z,9.90
2019-03-02T08:12:00.778Z,9.90
2019-03-02T08:13:01.686Z,9.90
2019-03-02T08:14:00.804Z,10.00
2019-03-02T08:15:00.819Z,10.60
2019-03-02T08:16:03.179Z,10.10
2019-03-02T08:17:00.849Z,9.50
2019-03-02T08:18:00.863Z,9.70
2019-03-02T08:19:03.940Z,9.50
2019-03-02T08:20:00.890Z,9.20
2019-03-02T08:21:01.715Z,9.90
2019-03-02T08:22:00.994Z,9.60
2019-03-02T08:23:00.982Z,9.50
2019-03-02T08:24:00.980Z,9.20
2019-03-02T08:25:01.048Z,9.30
2019-03-02T08:26:01.053Z,9.00
2019-03-02T08:27:01.051Z,9.70
2019-03-02T08:28:01.056Z,9.60
2019-03-02T08:29:01.046Z,8.80
2019-03-02T08:30:01.036Z,9.30
2019-03-02T08:31:01.050Z,9.40
2019-03-02T08:32:01.061Z,9.40
2019-03-02T08:33:01.079Z,9.40
2019-03-02T08:34:01.091Z,9.10
2019-03-02T08:35:01.113Z,9.10
2019-03-02T08:36:01.117Z,9.00
2019-03-02T08:37:01.134Z,8.20
2019-03-02T08:38:01.681Z,9.20
2019-03-02T08:39:01.160Z,8.90
2019-03-02T08:40:02.019Z,9.00
2019-03-02T08:41:01.785Z,10.30
2019-03-02T08:42:01.204Z,8.80
2019-03-02T08:43:01.226Z,8.40
2019-03-02T08:44:01.234Z,8.60
2019-03-02T08:45:01.249Z,8.80
2019-03-02T08:46:03.560Z,8.50
2019-03-02T08:47:01.280Z,8.20
2019-03-02T08:48:01.290Z,8.20
2019-03-02T08:49:02.882Z,8.60
2019-03-02T08:50:01.322Z,9.00
2019-03-02T08:51:01.336Z,8.30
2019-03-02T08:52:01.350Z,8.10
2019-03-02T08:53:01.366Z,8.40
2019-03-02T08:54:01.388Z,8.40
2019-03-02T08:55:01.401Z,8.80
2019-03-02T08:56:01.408Z,8.30
2019-03-02T08:57:01.424Z,8.50
2019-03-02T08:58:01.439Z,9.00
2019-03-02T08:59:02.041Z,8.20
2019-03-02T09:00:01.469Z,7.70
2019-03-02T09:01:01.487Z,9.20
2019-03-02T09:02:01.500Z,8.70
2019-03-02T09:03:01.514Z,7.40
2019-03-02T09:04:03.200Z,7.90
2019-03-02T09:05:01.544Z,8.30
2019-03-02T09:06:11.095Z,8.20
2019-03-02T09:07:01.572Z,7.60
2019-03-02T09:08:01.588Z,8.00
2019-03-02T09:09:01.600Z,7.80
2019-03-02T09:10:01.616Z,7.60
2019-03-02T09:11:01.633Z,8.10
2019-03-02T09:12:01.646Z,7.30
2019-03-02T09:13:01.661Z,8.70
2019-03-02T09:14:01.677Z,8.20
2019-03-02T09:15:01.691Z,8.30
2019-03-02T09:16:05.380Z,8.20
2019-03-02T09:17:01.722Z,9.40
2019-03-02T09:18:01.736Z,8.20
2019-03-02T09:19:01.756Z,8.40
2019-03-02T09:20:01.768Z,7.80
2019-03-02T09:21:01.786Z,8.60
2019-03-02T09:22:01.797Z,8.10
2019-03-02T09:23:01.840Z,8.50
2019-03-02T09:24:01.827Z,8.50
2019-03-02T09:25:01.840Z,8.40
2019-03-02T09:26:04.504Z,8.00
2019-03-02T09:27:01.871Z,7.90
2019-03-02T09:28:01.887Z,8.10
2019-03-02T09:29:01.903Z,8.00
2019-03-02T09:30:01.918Z,7.30
2019-03-02T09:31:02.125Z,7.80
2019-03-02T09:32:01.947Z,7.00
2019-03-02T09:33:01.962Z,6.90
2019-03-02T09:34:04.194Z,7.80
2019-03-02T09:35:01.995Z,8.10
2019-03-02T09:36:02.008Z,7.30
2019-03-02T09:37:03.868Z,7.20
2019-03-02T09:38:02.037Z,7.50
2019-03-02T09:39:02.062Z,7.70
2019-03-02T09:40:02.070Z,7.40
2019-03-02T09:41:02.090Z,7.50
2019-03-02T09:42:02.511Z,7.30
2019-03-02T09:43:02.115Z,7.60
2019-03-02T09:44:02.129Z,7.80
2019-03-02T09:45:02.146Z,7.20
2019-03-02T09:46:02.160Z,8.20
2019-03-02T09:47:05.049Z,7.20
2019-03-02T09:48:02.192Z,8.40
2019-03-02T09:49:02.241Z,7.70
2019-03-02T09:50:02.221Z,7.40
2019-03-02T09:51:02.239Z,7.50
2019-03-02T09:52:02.252Z,7.60
2019-03-02T09:53:02.267Z,7.50
2019-03-02T09:54:02.282Z,7.80
2019-03-02T09:55:02.300Z,7.50
2019-03-02T09:56:02.313Z,7.30
2019-03-02T09:57:02.328Z,7.60
2019-03-02T09:58:02.344Z,7.20
2019-03-02T09:59:03.021Z,8.60
2019-03-02T10:00:02.373Z,7.00
2019-03-02T10:01:04.471Z,7.70
2019-03-02T10:02:02.412Z,7.30
2019-03-02T10:03:02.421Z,7.50
2019-03-02T10:04:03.188Z,7.00
2019-03-02T10:05:02.451Z,7.60
2019-03-02T10:06:02.467Z,7.60
2019-03-02T10:07:03.337Z,7.80
2019-03-02T10:08:02.495Z,8.00
2019-03-02T10:09:02.514Z,7.30
2019-03-02T10:10:02.528Z,7.40
2019-03-02T10:11:02.690Z,7.40
2019-03-02T10:12:02.560Z,7.60
2019-03-02T10:13:02.578Z,7.20
2019-03-02T10:14:02.589Z,7.60
2019-03-02T10:15:02.610Z,7.60
2019-03-02T10:16:04.414Z,7.40
2019-03-02T10:17:02.712Z,8.10
2019-03-02T10:18:02.651Z,8.10
2019-03-02T10:19:02.672Z,7.40
2019-03-02T10:20:05.138Z,7.60
2019-03-02T10:21:02.698Z,8.50
2019-03-02T10:22:02.717Z,7.30
2019-03-02T10:23:05.564Z,7.00
2019-03-02T10:24:02.755Z,7.50
2019-03-02T10:25:02.844Z,7.60
2019-03-02T10:26:03.804Z,8.30
2019-03-02T10:27:02.852Z,7.40
2019-03-02T10:28:04.708Z,7.80
2019-03-02T10:29:02.898Z,7.70
2019-03-02T10:30:02.892Z,7.80
2019-03-02T10:31:05.995Z,7.80
2019-03-02T10:32:04.381Z,7.90
2019-03-02T10:33:02.887Z,8.60
2019-03-02T10:34:06.396Z,7.50
2019-03-02T10:35:02.920Z,7.80
2019-03-02T10:36:02.936Z,7.40
2019-03-02T10:37:03.580Z,8.00
2019-03-02T10:38:02.968Z,7.20
2019-03-02T10:39:02.982Z,7.60
2019-03-02T10:40:05.569Z,7.10
2019-03-02T10:41:03.027Z,7.60
2019-03-02T10:42:03.046Z,7.80
2019-03-02T10:43:03.049Z,7.70
2019-03-02T10:44:03.062Z,6.60
2019-03-02T10:45:03.077Z,6.70
2019-03-02T10:46:03.092Z,7.10
2019-03-02T10:47:03.105Z,6.70
2019-03-02T10:48:03.124Z,7.30
2019-03-02T10:49:03.134Z,7.40
2019-03-02T10:50:03.161Z,7.10
2019-03-02T10:51:03.170Z,6.60
2019-03-02T10:52:03.188Z,7.70
2019-03-02T10:53:03.202Z,6.50
2019-03-02T10:54:03.215Z,6.90
2019-03-02T10:55:03.236Z,6.60
2019-03-02T10:56:03.250Z,6.40
2019-03-02T10:57:03.266Z,6.30
2019-03-02T10:58:03.354Z,6.10
2019-03-02T10:59:03.301Z,6.10
2019-03-02T11:00:03.316Z,6.00
2019-03-02T11:01:07.033Z,5.80
2019-03-02T11:02:03.343Z,6.00
2019-03-02T11:03:03.362Z,5.80
2019-03-02T11:04:04.941Z,6.10
2019-03-02T11:05:03.395Z,5.80
2019-03-02T11:06:03.412Z,6.30
2019-03-02T11:07:05.041Z,6.10
2019-03-02T11:08:03.440Z,6.50
2019-03-02T11:09:04.107Z,5.80
2019-03-02T11:10:03.474Z,6.20
2019-03-02T11:11:03.491Z,5.60
2019-03-02T11:12:06.871Z,5.70
2019-03-02T11:13:03.527Z,5.30
2019-03-02T11:14:03.540Z,5.50
2019-03-02T11:15:04.024Z,6.20
2019-03-02T11:16:03.569Z,6.00
2019-03-02T11:17:03.585Z,6.20
2019-03-02T11:18:03.606Z,6.00
2019-03-02T11:19:04.240Z,5.30
2019-03-02T11:20:03.645Z,5.40
2019-03-02T11:21:03.649Z,5.00
2019-03-02T11:22:03.670Z,5.20
2019-03-02T11:23:03.691Z,5.30
2019-03-02T11:24:03.701Z,6.10
2019-03-02T11:25:03.717Z,5.80
2019-03-02T11:26:03.736Z,5.30
2019-03-02T11:27:03.749Z,5.40
2019-03-02T11:28:03.765Z,5.30
2019-03-02T11:29:03.781Z,5.60
2019-03-02T11:30:03.798Z,5.20
2019-03-02T11:31:03.816Z,5.40
2019-03-02T11:32:03.830Z,5.30
2019-03-02T11:33:03.846Z,5.30
2019-03-02T11:34:03.865Z,5.10
2019-03-02T11:35:06.906Z,5.30
2019-03-02T11:36:03.894Z,6.10
2019-03-02T11:37:03.914Z,5.20
2019-03-02T11:38:03.934Z,5.00
2019-03-02T11:39:03.945Z,5.60
2019-03-02T11:40:03.961Z,4.90
2019-03-02T11:41:04.993Z,5.30
2019-03-02T11:42:03.992Z,4.90
2019-03-02T11:43:05.066Z,5.90
2019-03-02T11:44:04.027Z,5.00
2019-03-02T11:45:04.046Z,5.20
2019-03-02T11:46:04.060Z,6.00
2019-03-02T11:47:04.077Z,5.40
2019-03-02T11:48:04.093Z,5.50
2019-03-02T11:49:04.110Z,5.60
2019-03-02T11:50:04.125Z,5.20
2019-03-02T11:51:04.142Z,5.60
2019-03-02T11:52:04.159Z,5.60
2019-03-02T11:53:04.178Z,5.60
2019-03-02T11:54:04.196Z,5.50
2019-03-02T11:55:04.499Z,5.90
2019-03-02T11:56:06.603Z,6.40
2019-03-02T11:57:04.246Z,5.60
2019-03-02T11:58:04.258Z,5.50
2019-03-02T11:59:06.003Z,5.70
2019-03-02T12:00:04.293Z,5.80
2019-03-02T12:01:04.309Z,6.10
2019-03-02T12:02:04.325Z,5.30
2019-03-02T12:03:04.343Z,5.80
2019-03-02T12:04:04.360Z,5.90
2019-03-02T12:05:04.376Z,5.20
2019-03-02T12:06:05.962Z,5.40
2019-03-02T12:07:04.412Z,5.30
2019-03-02T12:08:04.425Z,6.10
2019-03-02T12:09:04.442Z,5.70
2019-03-02T12:10:05.296Z,5.60
2019-03-02T12:11:07.038Z,5.50
2019-03-02T12:12:04.494Z,5.90
2019-03-02T12:13:04.532Z,5.80
2019-03-02T12:14:06.011Z,5.90
2019-03-02T12:15:04.543Z,6.00
2019-03-02T12:16:04.561Z,5.90
2019-03-02T12:17:05.905Z,5.90
2019-03-02T12:18:04.596Z,6.00
2019-03-02T12:19:05.290Z,6.20
2019-03-02T12:20:08.709Z,6.00
2019-03-02T12:21:04.691Z,5.50
2019-03-02T12:22:04.700Z,5.80
2019-03-02T12:23:04.760Z,5.60
2019-03-02T12:24:14.584Z,5.70
2019-03-02T12:25:04.766Z,5.90
2019-03-02T12:26:07.830Z,5.90
2019-03-02T12:27:04.753Z,6.10
2019-03-02T12:28:04.769Z,5.50
2019-03-02T12:29:04.785Z,5.70
2019-03-02T12:30:04.803Z,7.10
2019-03-02T12:31:04.819Z,6.10
2019-03-02T12:32:07.505Z,5.50
2019-03-02T12:33:04.853Z,6.30
2019-03-02T12:34:04.871Z,6.00
2019-03-02T12:35:04.887Z,6.20
2019-03-02T12:36:04.906Z,6.20
2019-03-02T12:37:04.922Z,6.00
2019-03-02T12:38:07.301Z,6.30
2019-03-02T12:39:07.140Z,6.00
2019-03-02T12:40:04.973Z,6.40
2019-03-02T12:41:04.991Z,6.10
2019-03-02T12:42:05.009Z,6.10
2019-03-02T12:43:07.557Z,5.80
2019-03-02T12:44:05.040Z,5.70
2019-03-02T12:45:05.062Z,5.30
2019-03-02T12:46:05.338Z,6.10
2019-03-02T12:47:05.094Z,6.10
2019-03-02T12:48:05.109Z,6.30
2019-03-02T12:49:06.928Z,6.00
2019-03-02T12:50:05.145Z,5.90
2019-03-02T12:51:05.161Z,5.90
2019-03-02T12:52:05.179Z,5.50
2019-03-02T12:53:05.194Z,5.50
2019-03-02T12:54:06.226Z,5.90
2019-03-02T12:55:05.231Z,6.00
2019-03-02T12:56:05.245Z,6.00
2019-03-02T12:57:08.414Z,5.50
2019-03-02T12:58:05.282Z,5.40
2019-03-02T12:59:05.300Z,5.80
2019-03-02T13:00:05.312Z,6.00
2019-03-02T13:01:05.330Z,5.80
2019-03-02T13:02:05.348Z,6.00
2019-03-02T13:03:05.364Z,6.30
2019-03-02T13:04:05.698Z,6.10
2019-03-02T13:05:05.404Z,5.90
2019-03-02T13:06:05.416Z,6.10
2019-03-02T13:07:05.430Z,6.20
2019-03-02T13:08:14.689Z,5.60
2019-03-02T13:09:05.465Z,6.10
2019-03-02T13:10:05.493Z,5.60
2019-03-02T13:11:05.498Z,5.80
2019-03-02T13:12:05.718Z,5.80
2019-03-02T13:13:05.534Z,6.40
2019-03-02T13:14:05.549Z,6.30
2019-03-02T13:15:06.033Z,6.30
2019-03-02T13:16:06.786Z,5.60
2019-03-02T13:17:05.601Z,6.40